aviador You're here:

KGFL Decoded Metar

GLENS FALLS in NY, USA
Report Time2018-07-19 18:53:00
UTC Time2018-07-19 19:21:58
Flight Rules vfr VFR
Wind150° at 08 kt
W.Decomp.*RWY 19: 7.2 kt HW 3.5 kt LCW
RWY 12: 5.8 kt HW 5.6 kt RCW
W.Rank150° ranks 28
Current wind is above 150° avg. (5.9)
Visibility9999 m
Phenomena:N/A
Clouds:N/A
Expected CloudBase > 5,600 ft AGL from Temp-Dew spread
CeilingNone
Temp26°C (ISA +12)
Dew Point12°C (42% RH)
AAT23.8°C
QNH1019 hPa
Density Alt1,677 ft
Elevation338 ft
Report Wrong Elevation
Raw Report
KGFL 191853Z AUTO 15008KT 10SM CLR 26/12 A3008 RMK AO2 SLP186
T02560122=

Extra information for KGFL:More info

Metar Taf Metar & Taf Last 4 Metars F.Rules Stats Wind Profile Meteogram Temp Stats Airport Information Weather charts Add Link Nearby VenuesMetar ALERT Operation Metar Decoded Social comments

AIRNAV info for KGFL